Time;durP1;ratioP1;P1;durP2;ratioP2;P2;SDS_P1;SDS_P2;PMS_P1;PMS_P2;Temp;Humidity;BMP_temperature;BMP_pressure;BME280_temperature;BME280_humidity;BME280_pressure;Samples;Min_cycle;Max_cycle;Signal;HPM_P1;HPM_P2
2022/01/24 00:00:14;;;;;;;2.53;2.40;;;5.00;99.90;;;5.23;75.83;102459.84;5034635;28;20222;-66
2022/01/24 00:02:43;;;;;;;2.55;2.38;;;5.00;99.90;;;5.26;75.81;102464.97;5033053;28;20229;-68
2022/01/24 00:05:12;;;;;;;2.13;1.92;;;5.00;99.90;;;5.22;76.14;102458.97;5033637;28;20236;-68
2022/01/24 00:07:39;;;;;;;2.45;2.28;;;5.00;99.90;;;5.13;76.72;102458.31;5031388;28;20200;-68
2022/01/24 00:10:12;;;;;;;1.92;1.83;;;4.90;99.90;;;5.17;76.21;102455.66;5034064;28;20233;-68
2022/01/24 00:18:12;;;;;;;2.08;1.98;;;4.90;99.90;;;5.18;76.92;102461.66;5038080;28;20232;-68
2022/01/24 00:28:55;;;;;;;2.67;2.47;;;4.90;99.90;;;5.16;75.96;102447.91;5037925;28;20226;-68
2022/01/24 00:31:22;;;;;;;2.40;2.30;;;4.90;99.90;;;5.15;76.53;102449.66;5033928;28;20232;-69
2022/01/24 00:33:49;;;;;;;2.25;2.15;;;4.90;99.90;;;5.11;76.95;102452.34;5032256;28;20614;-68
2022/01/24 00:36:16;;;;;;;1.77;1.70;;;4.90;99.90;;;5.15;76.16;102447.06;5032963;28;20209;-68
2022/01/24 00:38:43;;;;;;;3.08;2.30;;;4.90;99.90;;;5.14;76.47;102454.84;5040471;28;20225;-68
2022/01/24 00:41:17;;;;;;;2.00;1.90;;;4.90;99.90;;;5.17;75.90;102449.63;5054313;28;20727;-68
2022/01/24 00:44:12;;;;;;;2.35;2.15;;;4.90;99.90;;;5.13;76.21;102447.97;5053413;28;20232;-68
2022/01/24 00:46:44;;;;;;;2.40;2.20;;;4.90;99.90;;;5.06;76.05;102447.25;5048636;28;20226;-68
2022/01/24 00:49:34;;;;;;;1.85;1.75;;;4.80;99.90;;;5.05;76.04;102444.66;5039521;28;20222;-67
2022/01/24 00:54:52;;;;;;;3.03;2.10;;;4.80;99.90;;;5.04;75.82;102446.44;5053882;28;20692;-68
2022/01/24 00:57:19;;;;;;;3.72;2.50;;;4.80;99.90;;;4.98;76.08;102443.13;5053504;28;20215;-68
2022/01/24 00:59:48;;;;;;;2.33;2.00;;;4.70;99.90;;;4.95;75.90;102449.19;5051599;28;20240;-68
2022/01/24 01:02:16;;;;;;;1.92;1.73;;;4.80;99.90;;;4.83;76.19;102449.44;5033579;28;20198;-68
2022/01/24 01:18:26;;;;;;;1.45;1.30;;;4.40;99.90;;;4.54;77.10;102442.22;5040887;28;20224;-68
2022/01/24 01:23:25;;;;;;;3.50;1.80;;;4.40;99.90;;;4.55;77.08;102437.91;5045861;28;20193;-67
2022/01/24 01:25:53;;;;;;;1.20;1.20;;;4.30;99.90;;;4.51;76.88;102436.28;5060741;28;20203;-68
2022/01/24 01:28:22;;;;;;;1.55;1.20;;;4.30;99.90;;;4.40;77.19;102436.47;5052164;28;20235;-68
2022/01/24 01:30:52;;;;;;;2.55;1.50;;;4.20;99.90;;;4.44;77.36;102440.69;5041888;28;20216;-66
2022/01/24 01:58:11;;;;;;;1.67;1.67;;;4.10;99.90;;;4.23;78.59;102440.22;5032104;28;20208;-67
2022/01/24 02:00:43;;;;;;;1.50;1.50;;;4.00;99.90;;;4.19;78.71;102444.59;5033978;28;20209;-68
2022/01/24 02:03:10;;;;;;;2.00;1.90;;;3.90;99.90;;;4.20;78.49;102443.69;5034120;28;20247;-68
2022/01/24 02:05:38;;;;;;;2.05;1.80;;;4.00;99.90;;;4.19;79.07;102436.00;5043459;28;20682;-67
2022/01/24 02:08:05;;;;;;;2.58;2.35;;;4.00;99.90;;;4.17;79.48;102433.44;5041551;28;20222;-68
2022/01/24 02:10:35;;;;;;;2.03;1.88;;;4.00;99.90;;;4.17;79.62;102440.31;5029498;28;20217;-68
2022/01/24 02:13:03;;;;;;;4.53;2.80;;;3.90;99.90;;;4.19;79.94;102434.25;5044802;28;20197;-68
2022/01/24 02:18:54;;;;;;;1.73;1.63;;;3.90;99.90;;;4.15;80.14;102435.19;5044896;28;20201;-67
2022/01/24 02:23:42;;;;;;;2.40;1.88;;;3.90;99.90;;;4.10;80.17;102434.41;5049451;28;20220;-68
2022/01/24 02:26:17;;;;;;;1.70;1.60;;;3.90;99.90;;;4.11;79.92;102428.34;5050886;28;20192;-67
2022/01/24 02:28:53;;;;;;;1.50;1.40;;;3.90;99.90;;;4.14;79.48;102425.72;5049627;28;20213;-68
2022/01/24 02:31:37;;;;;;;2.15;1.98;;;3.90;99.90;;;4.09;80.27;102422.34;5034570;28;20217;-68
2022/01/24 02:34:26;;;;;;;2.13;1.90;;;3.90;99.90;;;4.04;80.47;102424.19;5049345;28;20680;-67
2022/01/24 02:36:57;;;;;;;3.38;1.80;;;3.80;99.90;;;4.06;80.46;102418.97;5050908;28;20300;-68
2022/01/24 02:53:46;;;;;;;1.90;1.80;;;3.80;99.90;;;3.94;81.09;102417.44;5045861;28;20205;-68
2022/01/24 02:56:13;;;;;;;2.20;2.10;;;3.80;99.90;;;3.95;81.14;102421.75;5044314;28;20206;-68
2022/01/24 02:58:40;;;;;;;2.38;2.20;;;3.70;99.90;;;3.96;80.84;102420.88;5046507;28;20768;-68
2022/01/24 03:01:07;;;;;;;2.00;1.90;;;3.80;99.90;;;3.94;81.04;102431.22;5049629;28;20208;-68
2022/01/24 03:03:37;;;;;;;3.33;2.30;;;3.70;99.90;;;3.96;81.40;102413.13;5044957;28;20198;-68
2022/01/24 03:06:05;;;;;;;2.38;2.10;;;3.80;99.90;;;3.94;81.65;102422.59;5029576;28;20186;-68
2022/01/24 03:11:27;;;;;;;2.10;2.00;;;3.70;99.90;;;3.98;81.79;102402.78;4942897;28;20300;-66
2022/01/24 03:13:54;;;;;;;1.98;1.85;;;3.80;99.90;;;3.96;81.86;102410.56;4938978;29;20200;-67
2022/01/24 03:16:21;;;;;;;2.75;2.55;;;3.70;99.90;;;4.01;81.88;102403.56;4950458;29;20220;-68
2022/01/24 03:18:48;;;;;;;1.80;1.80;;;3.80;99.90;;;4.02;81.84;102405.28;4951765;28;20245;-67
2022/01/24 03:21:19;;;;;;;2.00;1.90;;;3.80;99.90;;;3.98;81.41;102407.94;4951440;29;20201;-68
2022/01/24 03:23:46;;;;;;;2.13;1.95;;;3.80;99.90;;;3.97;81.99;102409.66;4951981;28;20288;-68
2022/01/24 03:26:13;;;;;;;3.38;2.53;;;3.80;99.90;;;3.96;81.67;102402.81;4951055;29;20231;-67
2022/01/24 03:28:40;;;;;;;2.33;2.15;;;3.80;99.90;;;3.96;81.59;102405.38;4952413;28;20204;-68
2022/01/24 03:31:06;;;;;;;2.60;2.40;;;3.80;99.90;;;3.95;81.16;102408.84;4952284;28;20250;-68
2022/01/24 03:33:33;;;;;;;2.40;2.17;;;3.80;99.90;;;3.94;81.58;102399.38;4952765;28;20204;-67
2022/01/24 03:36:00;;;;;;;2.83;2.53;;;3.70;99.90;;;3.91;82.07;102399.44;4950987;29;20687;-68
2022/01/24 03:38:27;;;;;;;2.90;2.72;;;3.70;99.90;;;3.93;81.34;102401.13;4952345;28;20665;-68
2022/01/24 03:40:54;;;;;;;4.25;2.15;;;3.70;99.90;;;3.93;81.67;102395.09;4952370;28;20229;-68
2022/01/24 03:43:21;;;;;;;2.10;1.92;;;3.70;99.90;;;4.01;80.87;102397.53;4952747;28;20207;-67
2022/01/24 03:46:09;;;;;;;2.25;2.05;;;3.80;99.90;;;3.93;81.11;102389.94;4952834;28;20299;-68
2022/01/24 03:48:46;;;;;;;2.30;2.20;;;3.70;99.90;;;3.97;81.41;102401.03;4947682;29;20197;-68
2022/01/24 03:51:15;;;;;;;2.00;1.90;;;3.80;99.90;;;3.96;81.33;102395.06;4965031;28;20747;-68
2022/01/24 03:53:44;;;;;;;2.85;2.65;;;3.80;99.90;;;3.94;81.65;102395.06;4950761;29;20731;-68
2022/01/24 03:56:12;;;;;;;4.05;2.60;;;3.70;99.90;;;3.96;81.52;102395.06;4934148;29;20529;-68
2022/01/24 03:58:40;;;;;;;2.10;2.00;;;3.80;99.90;;;3.91;81.93;102397.72;4951505;29;20205;-68
2022/01/24 04:01:08;;;;;;;2.92;2.72;;;3.70;99.90;;;3.86;81.70;102399.50;4950913;29;20229;-68
2022/01/24 04:03:38;;;;;;;2.55;2.35;;;3.70;99.90;;;3.90;81.97;102402.88;4966090;28;20245;-69
2022/01/24 04:06:06;;;;;;;2.20;1.92;;;3.70;99.90;;;3.87;81.93;102398.66;4951480;29;20665;-67
2022/01/24 04:08:33;;;;;;;2.15;1.85;;;3.70;99.90;;;3.91;81.06;102394.25;4952265;28;20208;-68
2022/01/24 04:11:01;;;;;;;0.90;0.90;;;3.80;99.90;;;3.77;81.52;102389.31;4951517;28;20616;-68
2022/01/24 04:13:37;;;;;;;3.38;2.00;;;3.70;99.90;;;3.79;81.35;102386.72;4951922;28;20383;-67
2022/01/24 04:18:40;;;;;;;1.58;1.48;;;3.60;99.90;;;3.80;81.76;102375.50;4950764;28;20205;-69
2022/01/24 04:21:28;;;;;;;4.05;1.83;;;3.70;99.90;;;3.77;81.75;102383.28;4946729;29;20201;-69
2022/01/24 04:26:26;;;;;;;5.00;1.58;;;3.70;99.90;;;3.80;82.35;102373.78;4945333;29;20212;-68
2022/01/24 04:28:53;;;;;;;2.35;2.20;;;3.60;99.90;;;3.84;81.64;102375.44;4933876;29;20205;-68
2022/01/24 04:31:22;;;;;;;2.05;1.85;;;3.60;99.90;;;3.86;81.45;102375.41;4951460;29;20298;-68
2022/01/24 04:33:50;;;;;;;1.73;1.63;;;3.70;99.90;;;3.87;81.88;102369.38;4952612;28;20205;-68
2022/01/24 04:36:18;;;;;;;2.33;2.10;;;3.70;99.90;;;3.82;82.07;102364.28;4954508;28;20677;-69
2022/01/24 04:38:46;;;;;;;4.80;2.13;;;3.70;99.90;;;3.82;82.63;102371.16;4954442;28;20205;-68
2022/01/24 04:41:21;;;;;;;2.25;2.15;;;3.60;99.90;;;3.86;82.86;102371.09;4955022;29;20673;-68
2022/01/24 04:44:02;;;;;;;3.50;2.13;;;3.60;99.90;;;3.90;82.25;102372.75;4954906;28;20235;-69
2022/01/24 04:54:42;;;;;;;2.33;2.20;;;3.80;99.90;;;4.11;81.36;102378.44;4950137;29;20856;-69
2022/01/24 04:57:16;;;;;;;1.88;1.75;;;3.90;99.90;;;4.08;81.23;102386.22;4954493;28;20315;-68
2022/01/24 04:59:47;;;;;;;3.67;1.85;;;3.90;99.90;;;3.97;81.81;102377.81;4953424;29;20243;-68
2022/01/24 05:02:16;;;;;;;2.13;1.67;;;3.80;99.90;;;3.98;81.06;102370.06;4953460;29;20643;-68
2022/01/24 05:04:43;;;;;;;3.33;2.72;;;3.80;99.90;;;4.06;81.08;102375.94;4951116;28;20574;-69
2022/01/24 05:07:11;;;;;;;4.18;2.53;;;3.80;99.90;;;4.10;80.73;102372.41;4948627;29;20243;-68
2022/01/24 05:09:45;;;;;;;2.90;2.42;;;3.90;99.90;;;4.09;80.88;102380.19;4954032;28;20240;-69
2022/01/24 05:12:24;;;;;;;3.25;2.60;;;3.90;99.90;;;4.12;80.58;102374.97;4954851;28;20214;-69
2022/01/24 05:21:30;;;;;;;1.90;1.80;;;3.90;99.90;;;4.20;80.36;102381.69;4949027;29;20209;-68
2022/01/24 05:25:58;;;;;;;3.20;2.25;;;4.00;99.90;;;4.11;81.02;102383.59;4953868;29;20215;-70
2022/01/24 05:28:26;;;;;;;2.75;1.95;;;3.90;99.90;;;4.09;80.71;102396.53;4954537;28;20574;-68
2022/01/24 05:30:53;;;;;;;1.08;1.08;;;3.90;99.90;;;4.05;80.75;102384.53;4968904;28;20225;-68
2022/01/24 05:33:20;;;;;;;1.67;1.55;;;3.90;99.90;;;4.11;80.37;102393.94;4954560;28;20259;-68
2022/01/24 05:35:48;;;;;;;3.10;2.05;;;3.90;99.90;;;4.08;80.50;102386.22;4953874;28;20200;-69
2022/01/24 05:38:15;;;;;;;1.83;1.70;;;3.90;99.90;;;4.17;80.45;102399.84;4953527;28;20208;-68
2022/01/24 05:40:45;;;;;;;2.75;2.22;;;4.00;99.90;;;4.14;80.50;102397.31;4952651;28;20225;-68
2022/01/24 05:43:12;;;;;;;2.30;1.90;;;3.90;99.90;;;4.14;80.72;102380.94;4952870;29;20227;-70
2022/01/24 05:45:39;;;;;;;1.52;1.42;;;3.90;99.90;;;4.12;80.67;102393.91;4952117;28;20231;-68
2022/01/24 05:48:06;;;;;;;1.30;1.20;;;3.90;99.90;;;4.04;81.13;102388.03;4953217;29;20196;-70
2022/01/24 05:50:33;;;;;;;2.22;1.98;;;3.80;99.90;;;4.06;81.00;102383.69;4953538;28;20756;-68
2022/01/24 05:53:00;;;;;;;1.98;1.80;;;3.80;99.90;;;4.02;80.91;102381.16;4953666;28;20205;-66
2022/01/24 05:55:27;;;;;;;2.05;1.95;;;3.80;99.90;;;4.04;81.41;102385.44;4952239;28;20294;-68
2022/01/24 05:57:54;;;;;;;2.10;2.00;;;3.80;99.90;;;4.03;81.24;102386.31;4969469;28;20565;-68
2022/01/24 06:00:22;;;;;;;2.10;2.00;;;3.80;99.90;;;4.05;81.02;102386.25;4953151;28;20243;-68
2022/01/24 06:02:50;;;;;;;1.95;1.85;;;3.80;99.90;;;4.06;81.19;102382.81;4950565;29;20224;-68
2022/01/24 06:05:17;;;;;;;1.90;1.80;;;3.90;99.90;;;4.09;80.95;102386.19;4950948;29;20203;-68
2022/01/24 06:07:44;;;;;;;1.55;1.45;;;3.90;99.90;;;4.09;81.08;102390.53;4953265;28;20204;-68
2022/01/24 06:10:11;;;;;;;2.67;2.03;;;3.90;99.90;;;4.11;80.81;102384.44;4952034;28;20242;-69
2022/01/24 06:12:38;;;;;;;4.95;2.08;;;3.90;99.90;;;4.12;80.74;102386.16;4953295;28;20212;-68
2022/01/24 06:15:09;;;;;;;3.28;2.03;;;3.90;99.90;;;4.14;80.83;102386.97;4952801;28;20234;-68
2022/01/24 06:17:36;;;;;;;1.90;1.80;;;3.90;99.90;;;4.09;81.06;102385.38;4953450;28;20587;-69
2022/01/24 06:20:04;;;;;;;3.75;2.05;;;3.90;99.90;;;4.05;80.83;102389.72;4951065;29;20609;-69
2022/01/24 06:22:31;;;;;;;2.17;2.08;;;3.90;99.90;;;4.07;81.42;102387.94;4954321;28;20215;-68
2022/01/24 06:24:58;;;;;;;1.85;1.80;;;3.90;99.90;;;4.03;81.29;102388.88;4952254;28;20200;-68
2022/01/24 06:27:40;;;;;;;2.50;2.13;;;3.80;99.90;;;3.97;81.84;102389.00;4965863;28;20193;-69
2022/01/24 06:30:08;;;;;;;2.10;2.00;;;3.80;99.90;;;4.01;81.71;102398.38;4952568;28;20228;-68
2022/01/24 06:32:35;;;;;;;2.40;2.13;;;3.80;99.90;;;3.94;82.08;102399.38;4952425;28;20237;-68
2022/01/24 06:35:02;;;;;;;5.97;2.10;;;3.70;99.90;;;3.87;82.49;102401.22;4952938;28;20212;-69
2022/01/24 06:37:29;;;;;;;2.20;2.10;;;3.70;99.90;;;3.98;82.00;102407.94;4966776;28;20571;-68
2022/01/24 06:39:56;;;;;;;2.17;1.90;;;3.80;99.90;;;3.92;81.89;102408.88;4952297;28;20250;-68
2022/01/24 06:42:23;;;;;;;2.60;2.40;;;3.80;99.90;;;3.93;82.57;102413.19;4953250;28;20677;-68
2022/01/24 06:44:53;;;;;;;2.40;2.30;;;3.70;99.90;;;3.92;81.83;102407.16;4951060;29;20197;-67
2022/01/24 06:47:21;;;;;;;2.58;2.38;;;3.70;99.90;;;3.88;82.12;102412.38;4967011;28;20205;-67
2022/01/24 06:49:48;;;;;;;2.80;2.60;;;3.70;99.90;;;3.91;81.67;102415.78;4951897;28;20232;-67
2022/01/24 06:52:15;;;;;;;2.53;1.90;;;3.70;99.90;;;3.96;82.09;102420.88;4948688;29;20681;-68
2022/01/24 06:54:44;;;;;;;2.92;2.40;;;3.80;99.90;;;3.87;82.14;102424.47;4950321;29;20211;-68
2022/01/24 06:57:13;;;;;;;2.28;2.17;;;3.70;99.90;;;3.80;82.55;102424.56;4966485;28;20601;-67
2022/01/24 06:59:42;;;;;;;2.50;2.22;;;3.60;99.90;;;3.79;83.31;102425.47;4967370;28;20232;-67
2022/01/24 07:02:11;;;;;;;3.30;2.00;;;3.60;99.90;;;3.86;82.90;102429.63;4951134;29;20205;-68
2022/01/24 07:04:39;;;;;;;2.30;2.20;;;3.70;99.90;;;3.87;82.56;102433.94;4951234;28;20196;-67
2022/01/24 07:07:07;;;;;;;2.10;2.00;;;3.70;99.90;;;3.87;82.65;102439.09;4952779;28;20271;-67
2022/01/24 07:09:36;;;;;;;1.67;1.58;;;3.70;99.90;;;3.86;82.63;102439.97;4965892;28;20311;-67
2022/01/24 07:12:04;;;;;;;1.15;1.15;;;3.70;99.90;;;3.87;82.66;102446.84;4950646;29;20622;-66
2022/01/24 07:14:31;;;;;;;2.10;2.00;;;3.70;99.90;;;3.86;82.71;102452.88;4952240;28;20209;-67
2022/01/24 07:19:29;;;;;;;1.70;1.60;;;3.70;99.90;;;3.87;82.74;102452.88;4951209;28;20735;-67
2022/01/24 07:22:01;;;;;;;2.15;1.95;;;3.70;99.90;;;3.98;82.43;102457.88;4950740;29;20208;-69
2022/01/24 07:24:28;;;;;;;2.90;1.95;;;3.80;99.90;;;3.96;82.21;102456.19;4951229;29;20205;-67
2022/01/24 07:26:56;;;;;;;2.70;2.50;;;3.80;99.90;;;4.00;82.01;102453.53;4933795;29;20208;-67
2022/01/24 07:29:23;;;;;;;1.90;1.80;;;3.80;99.90;;;4.02;81.82;102456.94;4932904;29;20236;-67
2022/01/24 07:31:50;;;;;;;1.63;1.63;;;3.90;99.90;;;4.03;81.91;102453.47;4949104;29;20205;-68
2022/01/24 07:34:17;;;;;;;1.98;1.88;;;3.90;99.90;;;4.09;81.75;102447.38;4953084;28;20260;-66
2022/01/24 07:36:44;;;;;;;2.10;2.00;;;3.90;99.90;;;4.13;81.66;102449.00;4953341;28;20196;-67
2022/01/24 07:39:12;;;;;;;2.08;2.00;;;4.00;99.90;;;4.26;81.43;102446.19;4966498;28;20236;-66
2022/01/24 07:41:47;;;;;;;2.00;1.38;;;4.10;99.90;;;4.50;80.33;102460.41;4969844;28;20220;-67
2022/01/24 07:44:17;;;;;;;2.13;2.03;;;4.30;99.90;;;4.66;79.73;102469.59;4969830;28;20204;-67
2022/01/24 07:46:44;;;;;;;2.05;1.75;;;4.50;99.90;;;4.88;78.43;102463.13;4955247;28;20208;-68
2022/01/24 07:49:12;;;;;;;1.80;1.70;;;4.80;99.90;;;5.06;77.26;102464.50;4968475;28;20231;-67
2022/01/24 07:51:40;;;;;;;1.90;1.80;;;5.00;99.90;;;5.30;76.84;102466.59;4966391;28;20641;-68
2022/01/24 07:54:08;;;;;;;2.53;2.33;;;5.20;99.90;;;5.55;75.64;102472.09;4959890;28;20681;-68
2022/01/24 07:56:37;;;;;;;2.50;2.35;;;5.60;99.90;;;5.95;74.74;102467.72;4948413;28;20213;-68
2022/01/24 07:59:04;;;;;;;3.00;2.75;;;5.90;99.90;;;6.43;72.66;102466.50;4953212;28;20229;-68
2022/01/24 08:01:32;;;;;;;2.28;2.10;;;6.50;99.90;;;7.12;69.34;102471.53;4958426;28;20315;-68
2022/01/24 08:04:00;;;;;;;4.70;1.93;;;7.30;99.90;;;7.98;66.92;102465.44;4940920;28;20254;-69
2022/01/24 08:06:27;;;;;;;2.73;2.40;;;8.30;99.90;;;8.80;63.28;102469.56;4949615;28;20632;-68
2022/01/24 08:08:54;;;;;;;2.40;2.00;;;9.20;99.90;;;9.43;60.53;102462.91;4955233;28;20623;-68
2022/01/24 08:11:22;;;;;;;2.10;2.00;;;9.80;99.90;;;9.94;58.63;102464.31;4954101;28;20698;-67
2022/01/24 08:13:51;;;;;;;1.77;1.67;;;10.40;99.90;;;10.34;56.26;102460.06;4953387;28;20991;-67
2022/01/24 08:16:21;;;;;;;2.43;2.23;;;10.90;99.90;;;10.75;54.82;102457.38;4955004;28;21192;-70
2022/01/24 08:18:51;;;;;;;2.60;2.40;;;11.40;99.90;;;11.39;53.61;102457.09;4955430;28;20695;-67
2022/01/24 08:21:20;;;;;;;2.70;1.90;;;12.10;98.40;;;11.75;51.84;102460.63;4954396;28;20670;-67
2022/01/24 08:23:48;;;;;;;2.80;2.33;;;12.80;95.50;;;12.63;49.89;102469.31;4950617;28;21207;-68
2022/01/24 08:26:16;;;;;;;2.27;2.03;;;13.50;93.60;;;12.82;49.38;102468.25;4953879;28;20640;-67
2022/01/24 08:28:44;;;;;;;2.63;2.43;;;14.10;90.90;;;13.27;48.18;102474.66;4939396;28;20713;-68
2022/01/24 08:31:11;;;;;;;1.27;1.27;;;14.80;86.80;;;13.78;46.58;102466.50;4948433;29;21084;-67
2022/01/24 08:33:38;;;;;;;7.70;2.83;;;15.60;80.30;;;14.87;44.91;102468.78;4956543;28;20623;-72
2022/01/24 08:36:05;;;;;;;5.90;3.17;;;16.50;75.30;;;16.04;42.57;102472.72;4953548;28;21247;-67
2022/01/24 08:38:35;;;;;;;3.83;2.67;;;17.50;70.40;;;17.01;40.50;102474.88;4966138;28;20632;-70
2022/01/24 08:41:13;;;;;;;4.10;3.00;;;18.60;65.40;;;17.84;38.53;102463.56;4962762;28;20675;-72
2022/01/24 08:46:16;;;;;;;3.83;3.53;;;21.00;57.50;;;20.96;33.94;102468.28;4940349;28;20638;-68
2022/01/24 08:48:46;;;;;;;4.60;4.20;;;22.70;53.50;;;21.83;31.51;102465.75;4948636;28;24456;-69
2022/01/24 08:51:13;;;;;;;6.13;3.60;;;24.00;49.30;;;22.80;30.12;102473.53;4953007;28;20205;-70
2022/01/24 08:54:01;;;;;;;3.50;3.20;;;25.00;47.20;;;22.82;29.37;102466.22;4954501;29;21023;-70
2022/01/24 08:56:28;;;;;;;4.33;3.10;;;25.70;44.40;;;23.56;28.46;102471.47;4954959;28;20619;-71
2022/01/24 08:58:55;;;;;;;6.70;2.80;;;26.30;43.30;;;23.66;26.98;102466.94;4955227;28;21242;-70
2022/01/24 09:01:22;;;;;;;17.40;2.00;;;26.70;42.00;;;22.62;27.88;102466.41;4954230;29;21273;-70
2022/01/24 09:03:50;;;;;;;3.40;2.90;;;26.50;41.20;;;23.86;28.02;102463.97;4953830;28;20659;-70
2022/01/24 09:06:18;;;;;;;3.53;3.23;;;26.50;41.80;;;24.37;26.73;102460.56;4953765;28;20702;-70
2022/01/24 09:08:45;;;;;;;4.03;3.73;;;26.80;41.00;;;25.22;25.97;102462.38;4969585;28;20630;-70
2022/01/24 09:11:13;;;;;;;3.20;3.10;;;27.60;40.70;;;24.89;25.96;102453.41;5035262;23;20786;-66
2022/01/24 09:13:39;;;;;;;3.70;3.40;;;28.10;39.20;;;24.66;25.75;102460.25;5032422;28;20608;-67
2022/01/24 09:16:06;;;;;;;3.50;3.20;;;28.10;38.80;;;23.34;26.78;102459.41;5031652;28;20624;-67
2022/01/24 09:18:33;;;;;;;3.80;3.50;;;27.60;38.30;;;20.59;31.25;102452.06;5032446;28;20612;-66
2022/01/24 09:21:00;;;;;;;3.77;3.40;;;24.70;40.90;;;20.13;31.28;102447.97;5016017;28;20673;-65
2022/01/24 09:23:27;;;;;;;3.50;3.30;;;23.90;41.80;;;20.28;31.18;102450.31;5012940;28;20716;-65
2022/01/24 09:25:54;;;;;;;4.00;3.70;;;23.30;42.30;;;17.34;35.40;102455.78;5010618;28;20684;-67
2022/01/24 09:28:21;;;;;;;4.10;3.70;;;20.70;45.20;;;13.61;43.76;102451.72;5011940;28;21117;-65
2022/01/24 09:30:48;;;;;;;5.03;2.90;;;16.60;52.10;;;11.29;49.49;102453.19;5011679;28;20661;-67
2022/01/24 09:33:15;;;;;;;3.50;3.30;;;13.20;58.60;;;10.73;51.17;102451.38;5011625;28;20716;-67
2022/01/24 09:35:43;;;;;;;1.53;1.23;;;11.70;64.90;;;9.75;54.29;102449.47;5010738;28;20629;-65
2022/01/24 09:38:11;;;;;;;2.83;2.30;;;10.60;74.80;;;9.37;56.74;102456.13;5011502;28;21215;-64
2022/01/24 09:40:39;;;;;;;2.10;1.73;;;9.80;90.50;;;8.87;58.11;102455.44;5010322;28;20972;-64
2022/01/24 09:43:06;;;;;;;5.40;3.83;;;9.10;97.30;;;8.70;59.75;102467.34;5011206;28;20605;-65
2022/01/24 09:45:33;;;;;;;2.10;1.90;;;8.80;99.90;;;8.75;59.80;102458.47;5010404;28;20618;-66
2022/01/24 09:48:02;;;;;;;2.97;2.53;;;8.90;99.90;;;8.61;60.46;102455.50;5010870;28;21187;-66
2022/01/24 09:50:29;;;;;;;3.90;2.90;;;8.90;99.90;;;8.22;62.05;102459.44;5010000;28;20758;-66
2022/01/24 09:52:56;;;;;;;3.50;3.00;;;8.50;99.90;;;8.20;62.41;102463.84;5010281;28;20668;-64
2022/01/24 09:55:24;;;;;;;3.33;1.70;;;8.50;99.90;;;7.78;64.17;102472.13;4995051;28;21159;-65
2022/01/24 09:57:52;;;;;;;1.47;1.17;;;8.10;99.90;;;7.87;63.61;102470.13;5010038;28;20637;-67
2022/01/24 10:00:23;;;;;;;1.80;1.33;;;8.20;99.90;;;7.96;62.25;102469.84;5011451;28;21141;-66
2022/01/24 10:02:52;;;;;;;1.27;1.17;;;8.10;99.90;;;7.34;65.45;102458.78;5011257;28;20641;-68
2022/01/24 10:05:38;;;;;;;1.77;1.63;;;7.70;99.90;;;7.96;63.76;102472.44;4996525;28;20609;-68
2022/01/24 10:08:26;;;;;;;2.57;2.37;;;8.10;99.90;;;7.74;63.67;102467.91;5011821;28;20596;-66
2022/01/24 10:10:58;;;;;;;4.93;0.87;;;7.90;99.90;;;7.88;63.06;102458.84;5008791;28;21058;-69
2022/01/24 10:16:36;;;;;;;1.83;1.73;;;8.20;99.90;;;7.54;64.97;102465.06;5009650;28;20669;-66
2022/01/24 10:19:09;;;;;;;3.07;2.77;;;8.10;99.90;;;7.53;65.26;102463.38;5025221;28;21208;-65
2022/01/24 10:22:00;;;;;;;1.83;1.67;;;7.70;99.90;;;7.45;65.96;102462.72;5001188;28;20845;-67
2022/01/24 10:24:53;;;;;;;0.35;0.35;;;7.50;99.90;;;6.71;68.36;102462.28;5010168;28;20999;-67
2022/01/24 10:27:28;;;;;;;0.65;0.65;;;7.20;99.90;;;6.84;67.65;102462.81;5011568;28;20217;-66
2022/01/24 10:29:58;;;;;;;2.67;2.47;;;7.00;99.90;;;6.86;67.95;102450.63;5010672;28;20218;-66
2022/01/24 10:32:32;;;;;;;2.58;2.45;;;6.90;99.90;;;7.13;66.47;102455.06;5006522;28;20235;-67
2022/01/24 10:35:37;;;;;;;2.25;1.20;;;7.00;99.90;;;7.13;67.54;102455.06;5010236;28;20308;-67
2022/01/24 10:38:54;;;;;;;2.40;2.17;;;7.10;99.90;;;7.07;66.61;102445.69;5010378;28;20204;-67
2022/01/24 10:41:24;;;;;;;1.73;1.05;;;6.90;99.90;;;6.90;68.09;102441.88;5011672;28;20234;-65
2022/01/24 10:43:56;;;;;;;1.63;1.52;;;6.90;99.90;;;7.12;67.12;102445.56;4994002;28;20278;-67
2022/01/24 10:46:43;;;;;;;2.43;2.20;;;7.10;99.90;;;7.14;66.66;102435.13;5011055;28;20507;-65
2022/01/24 10:49:13;;;;;;;0.90;0.90;;;7.10;99.90;;;7.32;66.73;102437.19;5025365;28;20664;-66
2022/01/24 10:51:46;;;;;;;1.77;1.67;;;7.30;99.90;;;7.33;66.08;102439.75;5009637;28;20633;-67
2022/01/24 10:54:15;;;;;;;1.30;1.27;;;7.30;99.90;;;7.27;66.97;102441.66;5009165;28;20740;-65
2022/01/24 10:56:45;;;;;;;1.90;1.77;;;7.30;99.90;;;7.15;66.93;102436.84;4993829;28;20671;-66
2022/01/24 10:59:16;;;;;;;0.60;0.60;;;7.20;99.90;;;7.00;68.16;102431.22;5008994;28;20206;-66
2022/01/24 11:02:03;;;;;;;1.70;1.67;;;7.10;99.90;;;6.79;68.24;102424.00;5009518;28;20688;-65
2022/01/24 11:04:33;;;;;;;1.88;1.70;;;6.90;99.90;;;6.59;69.15;102426.31;5009765;28;20285;-64
2022/01/24 11:07:03;;;;;;;2.70;1.00;;;6.80;99.90;;;6.98;66.75;102422.59;4988439;28;20200;-67
2022/01/24 11:09:34;;;;;;;2.03;1.80;;;6.90;99.90;;;7.11;66.76;102424.84;5004785;28;20230;-68
2022/01/24 11:12:11;;;;;;;2.53;2.28;;;7.00;99.90;;;7.24;66.71;102421.00;5008272;28;20198;-66
2022/01/24 11:14:41;;;;;;;5.93;1.50;;;7.20;99.90;;;7.32;65.76;102416.44;5009413;28;20301;-67
2022/01/24 11:17:13;;;;;;;0.80;0.70;;;7.30;99.90;;;6.76;68.34;102407.69;5008648;28;20814;-65
2022/01/24 11:19:48;;;;;;;1.77;1.63;;;7.10;99.90;;;7.06;66.77;102417.19;5011836;28;20310;-65
2022/01/24 11:22:20;;;;;;;1.40;1.37;;;7.10;99.90;;;7.35;66.08;102405.94;5008717;28;20665;-66
2022/01/24 11:24:55;;;;;;;3.00;1.93;;;7.30;99.90;;;7.45;65.35;102409.97;5010173;28;20656;-66
2022/01/24 11:27:40;;;;;;;1.00;1.00;;;7.40;99.90;;;7.43;66.02;102407.41;4982392;28;20624;-66
2022/01/24 11:30:15;;;;;;;1.35;1.25;;;7.40;99.90;;;7.26;65.75;102403.63;5009939;28;20733;-67
2022/01/24 11:32:53;;;;;;;2.20;2.10;;;7.40;99.90;;;7.60;65.29;102405.13;5011897;28;20206;-67
2022/01/24 11:35:41;;;;;;;2.87;1.73;;;7.50;99.90;;;7.46;65.24;102401.25;5009071;28;20704;-67
2022/01/24 11:38:44;;;;;;;1.90;1.80;;;7.60;99.90;;;7.61;63.95;102401.63;5009909;28;20633;-67
2022/01/24 11:41:24;;;;;;;0.97;0.70;;;7.70;99.90;;;7.63;64.85;102399.84;5004758;28;20768;-66
2022/01/24 11:44:06;;;;;;;0.80;0.80;;;7.60;99.90;;;7.56;65.03;102393.13;5001888;28;20633;-70
2022/01/24 11:46:51;;;;;;;1.70;1.70;;;7.50;99.90;;;7.51;64.54;102395.03;5013712;28;20644;-67
2022/01/24 11:49:27;;;;;;;1.73;1.63;;;7.50;99.90;;;7.67;64.29;102385.00;5013036;28;21223;-66
2022/01/24 11:52:07;;;;;;;8.37;2.90;;;7.60;99.90;;;7.61;64.35;102399.03;5003256;28;21283;-68
2022/01/24 11:54:53;;;;;;;2.80;2.60;;;7.60;99.90;;;7.68;64.87;102403.16;4994470;28;20725;-65
2022/01/24 11:57:27;;;;;;;1.75;1.65;;;7.60;99.90;;;7.79;63.36;102395.00;4997429;28;21209;-67
2022/01/24 12:00:06;;;;;;;0.50;0.50;;;7.70;99.90;;;7.59;65.01;102402.56;5013431;28;20599;-65
2022/01/24 12:02:55;;;;;;;1.77;1.67;;;7.50;99.90;;;7.77;64.04;102402.00;5013451;28;20669;-67
2022/01/24 12:05:46;;;;;;;3.73;2.30;;;7.70;99.90;;;7.57;64.58;102391.38;4977164;28;20646;-70
2022/01/24 12:08:41;;;;;;;3.80;1.27;;;7.70;99.90;;;7.60;64.77;102396.50;5006199;28;20630;-65
2022/01/24 12:11:23;;;;;;;1.37;1.37;;;7.50;99.90;;;7.40;65.40;102389.31;5012776;28;20687;-65
2022/01/24 12:14:00;;;;;;;0.77;0.77;;;7.40;99.90;;;7.39;64.54;102389.38;5013323;28;20703;-68
2022/01/24 12:16:41;;;;;;;0.50;0.50;;;7.20;99.90;;;7.11;65.65;102383.31;5012287;28;20815;-66
2022/01/24 12:19:11;;;;;;;1.23;1.23;;;7.00;99.90;;;7.03;67.02;102386.13;5006167;28;20614;-66
2022/01/24 12:21:40;;;;;;;2.10;2.00;;;7.00;99.90;;;6.93;67.89;102384.69;4999643;28;21145;-66
2022/01/24 12:24:13;;;;;;;0.40;0.40;;;6.90;99.90;;;7.04;66.75;102385.25;5013890;28;20643;-66
2022/01/24 12:26:50;;;;;;;0.90;0.70;;;6.90;99.90;;;7.10;66.28;102372.06;5007357;28;20691;-66
2022/01/24 12:29:27;;;;;;;1.70;1.10;;;7.00;99.90;;;6.92;66.58;102367.44;4995806;28;20853;-65
2022/01/24 12:31:58;;;;;;;2.00;1.90;;;6.70;99.90;;;7.03;66.80;102370.56;5010776;28;20637;-67